createdAt,value
2022-10-20T00:01:08.809Z,10.30
2022-10-20T00:08:43.247Z,10.40
2022-10-20T00:11:11.789Z,10.40
2022-10-20T00:13:39.921Z,10.40
2022-10-20T00:16:07.763Z,10.30
2022-10-20T00:18:35.926Z,10.00
2022-10-20T00:21:07.641Z,9.90
2022-10-20T00:23:35.194Z,10.00
2022-10-20T00:28:45.561Z,10.20
2022-10-20T00:31:13.517Z,10.10
2022-10-20T00:33:41.123Z,10.30
2022-10-20T00:36:13.556Z,10.30
2022-10-20T00:38:41.866Z,10.20
2022-10-20T00:41:11.562Z,10.00
2022-10-20T00:43:46.656Z,9.80
2022-10-20T00:51:25.531Z,9.60
2022-10-20T00:54:00.221Z,9.40
2022-10-20T00:56:27.754Z,9.30
2022-10-20T00:58:56.121Z,9.00
2022-10-20T01:01:23.787Z,9.00
2022-10-20T01:03:53.471Z,8.90
2022-10-20T01:06:23.424Z,9.20
2022-10-20T01:11:55.143Z,9.20
2022-10-20T01:14:36.192Z,9.20
2022-10-20T01:17:14.243Z,9.30
2022-10-20T01:20:32.792Z,9.20
2022-10-20T01:23:50.865Z,9.20
2022-10-20T01:26:41.221Z,9.30
2022-10-20T01:29:15.957Z,9.30
2022-10-20T01:36:59.502Z,9.20
2022-10-20T01:39:35.188Z,9.00
2022-10-20T01:42:07.422Z,8.90
2022-10-20T01:44:36.523Z,9.00
2022-10-20T01:47:05.931Z,9.20
2022-10-20T01:49:33.342Z,9.30
2022-10-20T01:52:05.221Z,9.40
2022-10-20T01:59:54.816Z,9.40
2022-10-20T02:02:40.232Z,9.30
2022-10-20T02:05:45.701Z,9.10
2022-10-20T02:08:16.488Z,9.10
2022-10-20T02:10:46.567Z,9.20
2022-10-20T02:13:15.346Z,9.20
2022-10-20T02:15:58.765Z,9.30
2022-10-20T02:22:29.632Z,9.00
2022-10-20T02:24:58.214Z,9.10
2022-10-20T02:27:29.393Z,9.20
2022-10-20T02:29:59.902Z,8.90
2022-10-20T02:32:31.782Z,8.70
2022-10-20T02:35:03.487Z,8.70
2022-10-20T02:37:37.427Z,8.40
2022-10-20T02:45:11.628Z,8.50
2022-10-20T02:47:41.991Z,8.30
2022-10-20T02:50:13.002Z,8.40
2022-10-20T02:52:40.787Z,8.40
2022-10-20T02:55:09.187Z,8.70
2022-10-20T02:57:37.252Z,8.50
2022-10-20T03:00:07.424Z,8.50
2022-10-20T03:07:41.054Z,8.20
2022-10-20T03:10:09.220Z,7.90
2022-10-20T03:12:37.072Z,7.70
2022-10-20T03:15:05.494Z,7.70
2022-10-20T03:17:33.247Z,7.70
2022-10-20T03:20:03.114Z,7.70
2022-10-20T03:27:54.657Z,7.70
2022-10-20T03:30:27.865Z,7.80
2022-10-20T03:32:56.321Z,7.70
2022-10-20T03:35:23.494Z,7.60
2022-10-20T03:37:50.944Z,7.50
2022-10-20T03:40:18.320Z,7.50
2022-10-20T03:42:45.550Z,7.50
2022-10-20T03:50:19.707Z,7.80
2022-10-20T03:52:48.295Z,7.70
2022-10-20T03:55:15.932Z,7.50
2022-10-20T03:57:44.335Z,7.60
2022-10-20T04:00:13.653Z,7.50
2022-10-20T04:02:43.222Z,7.50
2022-10-20T04:05:14.209Z,7.60
2022-10-20T04:07:42.607Z,7.60
2022-10-20T04:12:58.025Z,7.60
2022-10-20T04:15:25.675Z,7.60
2022-10-20T04:17:54.049Z,7.70
2022-10-20T04:20:21.714Z,7.60
2022-10-20T04:22:49.165Z,7.60
2022-10-20T04:25:17.025Z,7.60
2022-10-20T04:27:44.382Z,7.70
2022-10-20T04:33:39.382Z,7.70
2022-10-20T04:36:10.196Z,7.70
2022-10-20T04:38:39.854Z,7.70
2022-10-20T04:41:10.363Z,7.60
2022-10-20T04:43:37.672Z,7.50
2022-10-20T04:46:08.632Z,7.50
2022-10-20T04:48:37.928Z,7.30
2022-10-20T04:51:09.427Z,7.40
2022-10-20T04:59:23.454Z,7.40
2022-10-20T05:01:54.937Z,7.60
2022-10-20T05:04:31.421Z,7.40
2022-10-20T05:07:29.792Z,7.40
2022-10-20T05:10:16.023Z,7.50
2022-10-20T05:12:45.517Z,7.60
2022-10-20T05:15:14.442Z,7.40
2022-10-20T05:17:41.874Z,7.40
2022-10-20T05:23:05.153Z,7.50
2022-10-20T05:25:36.791Z,7.50
2022-10-20T05:28:06.216Z,7.50
2022-10-20T05:30:44.661Z,7.40
2022-10-20T05:33:12.994Z,7.40
2022-10-20T05:35:40.657Z,7.50
2022-10-20T05:38:09.154Z,7.60
2022-10-20T05:43:33.712Z,7.50
2022-10-20T05:46:02.941Z,7.70
2022-10-20T05:48:30.886Z,7.80
2022-10-20T05:51:10.687Z,7.80
2022-10-20T05:53:42.904Z,7.70
2022-10-20T05:56:15.278Z,7.70
2022-10-20T05:58:45.243Z,7.80
2022-10-20T06:04:03.120Z,7.70
2022-10-20T06:06:31.446Z,7.60
2022-10-20T06:09:01.959Z,7.70
2022-10-20T06:11:29.887Z,7.70
2022-10-20T06:13:57.244Z,7.70
2022-10-20T06:16:27.213Z,7.70
2022-10-20T06:18:54.891Z,7.80
2022-10-20T06:21:24.887Z,7.70
2022-10-20T06:29:03.968Z,7.70
2022-10-20T06:31:43.035Z,8.00
2022-10-20T06:34:16.405Z,8.10
2022-10-20T06:36:48.244Z,8.10
2022-10-20T06:39:19.812Z,8.20
2022-10-20T06:41:51.147Z,8.10
2022-10-20T06:52:20.539Z,8.20
2022-10-20T06:54:48.073Z,8.30
2022-10-20T06:57:15.944Z,8.30
2022-10-20T06:59:44.853Z,8.20
2022-10-20T07:02:12.710Z,8.40
2022-10-20T07:04:40.585Z,8.50
2022-10-20T07:07:08.918Z,8.60
2022-10-20T07:14:36.863Z,8.80
2022-10-20T07:17:05.054Z,8.80
2022-10-20T07:19:39.011Z,9.10
2022-10-20T07:22:06.464Z,9.20
2022-10-20T07:24:34.159Z,9.20
2022-10-20T07:27:05.472Z,9.40
2022-10-20T07:29:34.784Z,9.40
2022-10-20T07:37:22.113Z,9.10
2022-10-20T07:39:49.712Z,8.80
2022-10-20T07:42:16.976Z,8.70
2022-10-20T07:44:46.466Z,9.00
2022-10-20T07:47:15.223Z,9.40
2022-10-20T07:49:44.599Z,9.60
2022-10-20T07:52:13.613Z,9.70
2022-10-20T07:57:26.619Z,9.80
2022-10-20T07:59:54.386Z,10.10
2022-10-20T08:02:23.205Z,9.90
2022-10-20T08:04:51.275Z,9.90
2022-10-20T08:07:18.774Z,9.70
2022-10-20T08:09:46.706Z,9.10
2022-10-20T08:12:14.302Z,8.80
2022-10-20T08:22:41.934Z,9.40
2022-10-20T08:25:14.925Z,9.40
2022-10-20T08:27:45.644Z,9.30
2022-10-20T08:30:26.144Z,9.40
2022-10-20T08:32:55.631Z,9.30
2022-10-20T08:35:23.472Z,9.10
2022-10-20T08:37:57.369Z,9.20
2022-10-20T08:40:27.813Z,9.60
2022-10-20T08:48:05.684Z,9.90
2022-10-20T08:50:33.974Z,9.80
2022-10-20T08:53:02.278Z,9.90
2022-10-20T08:55:32.296Z,9.90
2022-10-20T08:58:03.069Z,10.10
2022-10-20T09:00:31.726Z,10.20
2022-10-20T09:03:11.608Z,9.90
2022-10-20T09:05:43.225Z,9.80
2022-10-20T09:13:28.165Z,9.80
2022-10-20T09:16:03.078Z,9.60
2022-10-20T09:18:31.645Z,9.70
2022-10-20T09:21:03.487Z,9.80
2022-10-20T09:23:41.675Z,9.70
2022-10-20T09:26:24.955Z,9.80
2022-10-20T09:29:13.309Z,9.50
2022-10-20T09:36:53.650Z,9.50
2022-10-20T09:39:22.515Z,9.30
2022-10-20T09:41:51.885Z,9.40
2022-10-20T09:44:24.178Z,9.80
2022-10-20T09:46:53.397Z,9.70
2022-10-20T09:49:28.666Z,9.60
2022-10-20T09:52:00.564Z,9.70
2022-10-20T09:59:41.473Z,9.60
2022-10-20T10:02:30.658Z,9.60
2022-10-20T10:05:14.473Z,9.90
2022-10-20T10:07:42.195Z,10.30
2022-10-20T10:10:29.546Z,10.10
2022-10-20T10:13:00.249Z,10.20
2022-10-20T10:15:32.150Z,10.30
2022-10-20T10:23:21.980Z,10.40
2022-10-20T10:25:59.310Z,10.60
2022-10-20T10:28:41.598Z,10.40
2022-10-20T10:31:23.097Z,10.70
2022-10-20T10:34:08.985Z,10.70
2022-10-20T10:36:38.889Z,10.80
2022-10-20T10:39:22.016Z,10.90
2022-10-20T10:42:06.834Z,11.00
2022-10-20T10:47:54.871Z,10.90
2022-10-20T10:50:31.171Z,10.70
2022-10-20T10:53:11.132Z,10.70
2022-10-20T10:55:50.658Z,10.80
2022-10-20T10:58:34.091Z,10.90
2022-10-20T11:01:11.358Z,10.90
2022-10-20T11:04:05.325Z,11.00
2022-10-20T11:09:42.331Z,11.20
2022-10-20T11:12:29.732Z,11.30
2022-10-20T11:15:14.317Z,11.40
2022-10-20T11:17:55.442Z,11.20
2022-10-20T11:20:37.213Z,11.20
2022-10-20T11:23:37.057Z,11.00
2022-10-20T11:29:12.105Z,11.40
2022-10-20T11:31:51.545Z,11.40
2022-10-20T11:34:30.099Z,11.50
2022-10-20T11:37:05.614Z,11.40
2022-10-20T11:39:40.617Z,11.40
2022-10-20T11:42:24.264Z,11.50
2022-10-20T11:44:56.509Z,11.30
2022-10-20T11:47:31.037Z,11.40
2022-10-20T11:55:26.320Z,11.50
2022-10-20T11:58:20.739Z,11.70
2022-10-20T12:01:01.665Z,11.70
2022-10-20T12:03:57.363Z,11.80
2022-10-20T12:06:50.250Z,12.00
2022-10-20T12:09:52.475Z,12.00
2022-10-20T12:12:28.973Z,11.90
2022-10-20T12:20:42.172Z,11.80
2022-10-20T12:23:52.082Z,11.80
2022-10-20T12:26:56.779Z,11.90
2022-10-20T12:29:47.886Z,12.00
2022-10-20T12:33:11.423Z,12.00
2022-10-20T12:36:02.762Z,12.20
2022-10-20T12:43:52.982Z,12.20
2022-10-20T12:46:27.499Z,12.20
2022-10-20T12:49:00.397Z,12.20
2022-10-20T12:51:40.582Z,12.20
2022-10-20T12:54:22.089Z,12.20
2022-10-20T12:56:51.196Z,12.10
2022-10-20T12:59:40.994Z,12.00
2022-10-20T13:07:57.787Z,12.00
2022-10-20T13:10:36.425Z,12.30
2022-10-20T13:13:46.923Z,12.40
2022-10-20T13:16:22.375Z,12.50
2022-10-20T13:18:53.131Z,12.30
2022-10-20T13:21:34.809Z,12.30
2022-10-20T13:24:15.959Z,12.20
2022-10-20T13:30:00.545Z,12.40
2022-10-20T13:32:48.033Z,12.60
2022-10-20T13:35:50.927Z,12.40
2022-10-20T13:38:41.417Z,12.20
2022-10-20T13:41:36.393Z,12.00
2022-10-20T13:44:30.499Z,11.80
2022-10-20T13:47:10.980Z,11.70
2022-10-20T13:49:52.923Z,11.70
2022-10-20T13:58:25.683Z,11.70
2022-10-20T14:01:24.633Z,11.70
2022-10-20T14:04:02.515Z,11.70
2022-10-20T14:06:41.429Z,11.80
2022-10-20T14:09:21.185Z,11.80
2022-10-20T14:12:08.635Z,11.80
2022-10-20T14:15:02.158Z,11.80
2022-10-20T14:25:04.914Z,11.90
2022-10-20T14:27:40.344Z,12.10
2022-10-20T14:30:15.285Z,12.20
2022-10-20T14:32:51.674Z,12.10
2022-10-20T14:35:34.086Z,12.10
2022-10-20T14:38:09.896Z,12.10
2022-10-20T14:40:43.665Z,12.20
2022-10-20T14:43:19.054Z,12.20
2022-10-20T14:45:55.875Z,12.20
2022-10-20T14:55:29.755Z,12.20
2022-10-20T14:58:10.762Z,12.10
2022-10-20T15:00:38.883Z,12.10
2022-10-20T15:03:09.299Z,12.20
2022-10-20T15:05:44.919Z,12.20
2022-10-20T15:08:32.781Z,12.20
2022-10-20T15:11:02.245Z,12.30
2022-10-20T15:17:36.086Z,12.30
2022-10-20T15:20:37.641Z,12.30
2022-10-20T15:23:12.144Z,12.50
2022-10-20T15:25:47.811Z,12.40
2022-10-20T15:28:33.395Z,12.40
2022-10-20T15:31:03.196Z,12.30
2022-10-20T15:33:33.680Z,12.30
2022-10-20T15:41:10.126Z,12.40
2022-10-20T15:43:40.742Z,12.40
2022-10-20T15:46:19.094Z,12.50
2022-10-20T15:48:48.704Z,12.40
2022-10-20T15:51:24.095Z,12.20
2022-10-20T15:53:54.455Z,12.20
2022-10-20T15:56:26.138Z,12.20
2022-10-20T15:58:57.578Z,12.10
2022-10-20T16:05:36.846Z,12.50
2022-10-20T16:08:07.949Z,12.60
2022-10-20T16:10:36.909Z,12.70
2022-10-20T16:13:05.456Z,12.60
2022-10-20T16:15:33.933Z,12.60
2022-10-20T16:18:05.866Z,12.50
2022-10-20T16:20:42.180Z,12.50
2022-10-20T16:26:07.006Z,12.50
2022-10-20T16:28:39.246Z,12.60
2022-10-20T16:31:08.923Z,12.70
2022-10-20T16:33:39.947Z,12.80
2022-10-20T16:36:15.978Z,12.80
2022-10-20T16:38:46.181Z,12.80
2022-10-20T16:41:16.565Z,12.90
2022-10-20T16:48:03.715Z,12.90
2022-10-20T16:50:31.538Z,12.90
2022-10-20T16:53:02.111Z,12.90
2022-10-20T16:55:30.114Z,12.90
2022-10-20T16:57:58.937Z,12.90
2022-10-20T17:00:26.707Z,12.90
2022-10-20T17:02:58.345Z,12.90
2022-10-20T17:08:14.156Z,12.90
2022-10-20T17:10:43.953Z,12.90
2022-10-20T17:13:12.011Z,13.00
2022-10-20T17:15:41.665Z,12.90
2022-10-20T17:18:10.013Z,13.00
2022-10-20T17:20:42.343Z,13.00
2022-10-20T17:23:10.548Z,12.90
2022-10-20T17:30:45.097Z,12.90
2022-10-20T17:33:16.406Z,13.10
2022-10-20T17:35:53.729Z,13.00
2022-10-20T17:46:26.173Z,13.10
2022-10-20T17:48:54.035Z,13.10
2022-10-20T17:51:26.019Z,13.10
2022-10-20T17:59:09.081Z,13.10
2022-10-20T18:01:43.767Z,13.10
2022-10-20T18:04:15.387Z,13.10
2022-10-20T18:06:46.732Z,13.10
2022-10-20T18:09:22.474Z,13.10
2022-10-20T18:11:53.635Z,12.70
2022-10-20T18:14:26.407Z,12.70
2022-10-20T18:19:44.724Z,12.90
2022-10-20T18:22:13.489Z,13.00
2022-10-20T18:24:43.314Z,12.80
2022-10-20T18:27:16.903Z,12.90
2022-10-20T18:29:47.583Z,13.00
2022-10-20T18:32:17.155Z,13.20
2022-10-20T18:34:48.534Z,13.30
2022-10-20T18:45:15.665Z,12.90
2022-10-20T18:47:55.615Z,13.30
2022-10-20T18:50:25.352Z,13.40
2022-10-20T18:52:53.484Z,13.40
2022-10-20T18:55:24.805Z,13.50
2022-10-20T18:57:52.945Z,13.20
2022-10-20T19:00:31.299Z,13.00
2022-10-20T19:03:01.935Z,12.70
2022-10-20T19:08:39.830Z,13.30
2022-10-20T19:11:11.057Z,13.30
2022-10-20T19:13:40.311Z,13.30
2022-10-20T19:16:10.874Z,13.40
2022-10-20T19:18:40.500Z,13.40
2022-10-20T19:21:10.965Z,13.60
2022-10-20T19:23:42.476Z,13.60
2022-10-20T19:29:12.065Z,13.80
2022-10-20T19:31:43.419Z,13.90
2022-10-20T19:34:19.595Z,13.80
2022-10-20T19:36:49.994Z,14.00
2022-10-20T19:39:21.513Z,14.10
2022-10-20T19:41:51.726Z,14.10
2022-10-20T19:44:24.755Z,14.10
2022-10-20T19:51:28.201Z,14.10
2022-10-20T19:54:01.687Z,14.10
2022-10-20T19:56:31.683Z,14.10
2022-10-20T19:59:01.797Z,14.10
2022-10-20T20:01:31.780Z,14.10
2022-10-20T20:03:59.860Z,14.10
2022-10-20T20:12:10.925Z,14.10
2022-10-20T20:14:47.847Z,13.90
2022-10-20T20:17:18.325Z,13.60
2022-10-20T20:19:48.316Z,13.50
2022-10-20T20:22:18.527Z,13.40
2022-10-20T20:24:46.486Z,13.50
2022-10-20T20:27:17.563Z,13.50
2022-10-20T20:29:46.694Z,13.00
2022-10-20T20:37:15.482Z,13.20
2022-10-20T20:39:46.278Z,13.00
2022-10-20T20:42:14.371Z,13.20
2022-10-20T20:44:43.883Z,13.10
2022-10-20T20:47:11.975Z,13.30
2022-10-20T20:49:40.121Z,13.40
2022-10-20T20:52:08.001Z,13.50
2022-10-20T20:59:44.849Z,13.50
2022-10-20T21:02:16.596Z,13.20
2022-10-20T21:04:47.524Z,12.90
2022-10-20T21:07:19.929Z,12.70
2022-10-20T21:09:49.811Z,12.70
2022-10-20T21:12:18.100Z,12.90
2022-10-20T21:14:51.139Z,12.80
2022-10-20T21:20:01.629Z,12.80
2022-10-20T21:22:30.467Z,13.30
2022-10-20T21:24:58.190Z,13.20
2022-10-20T21:27:26.106Z,13.50
2022-10-20T21:29:54.062Z,13.60
2022-10-20T21:32:25.734Z,13.60
2022-10-20T21:34:54.609Z,13.80
2022-10-20T21:41:44.633Z,13.90
2022-10-20T21:44:15.203Z,13.60
2022-10-20T21:46:48.189Z,13.40
2022-10-20T21:49:21.537Z,13.20
2022-10-20T21:51:51.919Z,13.50
2022-10-20T21:54:22.587Z,13.70
2022-10-20T21:56:51.440Z,13.70
2022-10-20T22:03:56.195Z,13.10
2022-10-20T22:06:30.600Z,13.10
2022-10-20T22:08:59.158Z,13.00
2022-10-20T22:11:28.711Z,12.90
2022-10-20T22:13:57.263Z,13.10
2022-10-20T22:16:27.123Z,13.10
2022-10-20T22:19:01.797Z,13.10
2022-10-20T22:24:29.809Z,13.10
2022-10-20T22:26:57.576Z,13.30
2022-10-20T22:29:28.306Z,13.50
2022-10-20T22:31:55.794Z,13.30
2022-10-20T22:34:24.665Z,13.50
2022-10-20T22:36:52.127Z,13.50
2022-10-20T22:39:19.847Z,13.50
2022-10-20T22:41:51.355Z,13.60
2022-10-20T22:49:27.465Z,13.50
2022-10-20T22:51:54.936Z,13.70
2022-10-20T22:54:22.485Z,13.80
2022-10-20T22:56:52.391Z,13.60
2022-10-20T22:59:23.034Z,13.60
2022-10-20T23:01:50.621Z,13.60
2022-10-20T23:04:17.883Z,13.30
2022-10-20T23:06:46.752Z,13.40
2022-10-20T23:14:20.673Z,13.30
2022-10-20T23:16:48.966Z,13.50
2022-10-20T23:19:16.625Z,13.40
2022-10-20T23:21:44.256Z,13.60
2022-10-20T23:24:11.999Z,13.80
2022-10-20T23:26:39.513Z,14.00
2022-10-20T23:29:06.864Z,13.80
2022-10-20T23:31:35.963Z,13.70
2022-10-20T23:36:45.414Z,13.80
2022-10-20T23:39:12.824Z,13.80
2022-10-20T23:41:40.226Z,14.00
2022-10-20T23:44:07.600Z,14.30
2022-10-20T23:46:37.115Z,14.50
2022-10-20T23:49:06.040Z,14.60
2022-10-20T23:51:34.558Z,14.60
2022-10-20T23:57:13.141Z,14.80
2022-10-20T23:59:40.873Z,14.80
